createdAt,value
2017-11-07T00:01:01.692Z,2.20
2017-11-07T00:03:29.524Z,0.77
2017-11-07T00:05:57.380Z,2.50
2017-11-07T00:08:25.240Z,3.10
2017-11-07T00:10:53.020Z,1.57
2017-11-07T00:13:20.835Z,1.63
2017-11-07T00:15:49.492Z,20.17
2017-11-07T00:18:18.159Z,1.43
2017-11-07T00:20:46.742Z,2.10
2017-11-07T00:23:14.550Z,3.60
2017-11-07T00:25:43.111Z,3.50
2017-11-07T00:28:10.987Z,2.07
2017-11-07T00:30:39.618Z,6.13
2017-11-07T00:33:07.457Z,2.87
2017-11-07T00:35:36.035Z,2.90
2017-11-07T00:38:03.878Z,3.47
2017-11-07T00:40:31.722Z,3.83
2017-11-07T00:42:59.536Z,1.90
2017-11-07T00:45:28.122Z,8.03
2017-11-07T00:47:56.664Z,2.60
2017-11-07T00:50:24.659Z,6.17
2017-11-07T00:52:53.311Z,5.03
2017-11-07T00:55:21.144Z,0.70
2017-11-07T00:57:48.923Z,3.43
2017-11-07T01:00:16.732Z,7.30
2017-11-07T01:02:44.539Z,1.83
2017-11-07T01:05:12.655Z,3.73
2017-11-07T01:07:40.536Z,4.40
2017-11-07T01:10:08.340Z,2.97
2017-11-07T01:12:36.166Z,1.33
2017-11-07T01:15:05.167Z,3.30
2017-11-07T01:17:32.961Z,2.50
2017-11-07T01:20:00.845Z,3.00
2017-11-07T01:22:28.659Z,6.13
2017-11-07T01:24:56.537Z,1.53
2017-11-07T01:27:25.110Z,3.83
2017-11-07T01:29:52.987Z,2.13
2017-11-07T01:32:20.852Z,2.07
2017-11-07T01:34:48.709Z,1.00
2017-11-07T01:37:16.533Z,6.13
2017-11-07T01:39:44.441Z,1.07
2017-11-07T01:42:12.260Z,3.83
2017-11-07T01:44:40.071Z,2.20
2017-11-07T01:47:07.888Z,7.43
2017-11-07T01:49:35.691Z,3.63
2017-11-07T01:52:03.525Z,5.47
2017-11-07T01:54:31.401Z,2.72
2017-11-07T01:56:59.309Z,2.43
2017-11-07T01:59:27.209Z,2.03
2017-11-07T02:01:55.038Z,1.60
2017-11-07T02:04:22.851Z,2.60
2017-11-07T02:06:50.679Z,3.17
2017-11-07T02:09:19.227Z,3.00
2017-11-07T02:11:47.066Z,2.30
2017-11-07T02:14:14.890Z,1.33
2017-11-07T02:16:44.117Z,2.43
2017-11-07T02:19:12.013Z,4.17
2017-11-07T02:21:39.900Z,3.80
2017-11-07T02:24:07.973Z,1.50
2017-11-07T02:26:35.851Z,0.80
2017-11-07T02:29:03.724Z,2.00
2017-11-07T02:31:32.337Z,4.67
2017-11-07T02:34:00.277Z,2.77
2017-11-07T02:36:28.888Z,1.77
2017-11-07T02:38:56.763Z,2.50
2017-11-07T02:41:24.572Z,4.30
2017-11-07T02:43:52.461Z,5.00
2017-11-07T02:46:21.051Z,1.87
2017-11-07T02:48:49.649Z,2.70
2017-11-07T02:51:17.656Z,1.40
2017-11-07T02:53:45.498Z,3.00
2017-11-07T02:56:13.324Z,4.87
2017-11-07T02:58:41.142Z,2.80
2017-11-07T03:01:08.999Z,0.90
2017-11-07T03:03:38.689Z,3.72
2017-11-07T03:06:06.513Z,2.30
2017-11-07T03:08:34.338Z,3.83
2017-11-07T03:11:02.141Z,3.83
2017-11-07T03:13:29.933Z,3.20
2017-11-07T03:15:58.495Z,1.43
2017-11-07T03:18:26.579Z,1.53
2017-11-07T03:20:54.728Z,1.20
2017-11-07T03:23:22.541Z,1.10
2017-11-07T03:25:50.486Z,4.20
2017-11-07T03:28:19.149Z,0.80
2017-11-07T03:30:46.974Z,7.00
2017-11-07T03:33:14.840Z,1.53
2017-11-07T03:35:42.811Z,4.63
2017-11-07T03:38:10.726Z,3.80
2017-11-07T03:40:39.382Z,3.30
2017-11-07T03:43:07.229Z,2.90
2017-11-07T03:45:35.136Z,4.97
2017-11-07T03:48:03.100Z,2.47
2017-11-07T03:50:31.026Z,1.03
2017-11-07T03:52:58.859Z,5.90
2017-11-07T03:55:27.540Z,3.80
2017-11-07T03:57:56.145Z,8.00
2017-11-07T04:00:24.025Z,5.90
2017-11-07T04:02:51.831Z,5.10
2017-11-07T04:05:19.656Z,2.00
2017-11-07T04:07:47.523Z,1.80
2017-11-07T04:10:15.447Z,5.70
2017-11-07T04:12:43.265Z,1.50
2017-11-07T04:15:11.199Z,3.15
2017-11-07T04:17:39.805Z,6.20
2017-11-07T04:20:07.698Z,1.67
2017-11-07T04:22:36.319Z,1.00
2017-11-07T04:25:04.981Z,4.97
2017-11-07T04:27:32.865Z,4.87
2017-11-07T04:30:00.732Z,3.93
2017-11-07T04:32:29.377Z,4.03
2017-11-07T04:34:57.196Z,1.40
2017-11-07T04:37:25.876Z,3.53
2017-11-07T04:39:54.543Z,2.73
2017-11-07T04:42:22.368Z,1.53
2017-11-07T04:44:50.265Z,7.60
2017-11-07T04:47:18.123Z,1.83
2017-11-07T04:49:45.953Z,1.27
2017-11-07T04:52:13.875Z,2.47
2017-11-07T04:54:41.786Z,3.30
2017-11-07T04:57:09.661Z,1.53
2017-11-07T04:59:37.528Z,1.40
2017-11-07T05:02:05.366Z,0.80
2017-11-07T05:04:34.971Z,4.10
2017-11-07T05:07:03.636Z,7.67
2017-11-07T05:09:31.487Z,1.17
2017-11-07T05:11:59.352Z,2.20
2017-11-07T05:14:27.278Z,4.83
2017-11-07T05:16:55.120Z,2.90
2017-11-07T05:19:23.873Z,4.73
2017-11-07T05:21:51.701Z,2.43
2017-11-07T05:24:19.582Z,5.00
2017-11-07T05:26:47.440Z,1.57
2017-11-07T05:29:16.605Z,5.37
2017-11-07T05:31:45.258Z,1.00
2017-11-07T05:34:13.151Z,1.00
2017-11-07T05:36:41.744Z,6.33
2017-11-07T05:39:10.631Z,4.03
2017-11-07T05:41:39.266Z,3.17
2017-11-07T05:44:07.128Z,1.10
2017-11-07T05:46:35.083Z,2.73
2017-11-07T05:49:03.035Z,2.43
2017-11-07T05:51:30.889Z,2.10
2017-11-07T05:53:58.787Z,3.13
2017-11-07T05:56:26.886Z,1.00
2017-11-07T05:58:54.760Z,1.40
2017-11-07T06:01:22.618Z,1.30
2017-11-07T06:03:50.472Z,1.77
2017-11-07T06:06:18.376Z,2.70
2017-11-07T06:08:46.236Z,3.47
2017-11-07T06:11:14.035Z,5.70
2017-11-07T06:13:41.943Z,5.07
2017-11-07T06:16:10.100Z,5.90
2017-11-07T06:18:37.982Z,3.80
2017-11-07T06:21:05.867Z,4.10
2017-11-07T06:23:33.830Z,4.43
2017-11-07T06:26:01.711Z,5.77
2017-11-07T06:28:29.538Z,5.00
2017-11-07T06:30:58.650Z,1.23
2017-11-07T06:33:26.587Z,2.67
2017-11-07T06:35:54.686Z,8.70
2017-11-07T06:38:22.557Z,5.93
2017-11-07T06:40:50.542Z,5.20
2017-11-07T06:43:18.363Z,8.63
2017-11-07T06:45:46.470Z,17.20
2017-11-07T06:48:14.312Z,14.70
2017-11-07T06:50:42.184Z,17.53
2017-11-07T06:53:10.379Z,11.23
2017-11-07T06:55:38.213Z,1.60
2017-11-07T06:58:06.168Z,3.67
2017-11-07T07:00:34.110Z,6.30
2017-11-07T07:03:02.048Z,12.03
2017-11-07T07:05:29.962Z,10.47
2017-11-07T07:07:57.941Z,5.83
2017-11-07T07:10:25.879Z,8.47
2017-11-07T07:12:53.737Z,9.27
2017-11-07T07:15:24.494Z,6.90
2017-11-07T07:17:52.520Z,7.33
2017-11-07T07:20:20.410Z,11.47
2017-11-07T07:22:49.041Z,10.07
2017-11-07T07:25:16.995Z,10.73
2017-11-07T07:27:45.735Z,9.93
2017-11-07T07:30:13.675Z,10.40
2017-11-07T07:32:41.584Z,5.13
2017-11-07T07:35:09.450Z,4.27
2017-11-07T07:37:37.704Z,13.90
2017-11-07T07:40:06.333Z,12.20
2017-11-07T07:42:34.203Z,8.13
2017-11-07T07:45:02.286Z,19.33
2017-11-07T07:47:31.222Z,23.53
2017-11-07T07:49:59.064Z,30.57
2017-11-07T07:52:26.905Z,14.93
2017-11-07T07:54:54.804Z,22.00
2017-11-07T07:57:22.696Z,25.60
2017-11-07T07:59:51.392Z,15.17
2017-11-07T08:02:20.185Z,28.67
2017-11-07T08:04:48.169Z,20.37
2017-11-07T08:07:16.109Z,22.43
2017-11-07T08:09:44.058Z,34.13
2017-11-07T08:12:12.105Z,28.07
2017-11-07T08:14:39.990Z,21.23
2017-11-07T08:17:07.894Z,19.33
2017-11-07T08:19:36.509Z,23.80
2017-11-07T08:22:05.712Z,11.93
2017-11-07T08:24:33.572Z,10.97
2017-11-07T08:27:01.526Z,19.40
2017-11-07T08:29:29.436Z,7.83
2017-11-07T08:31:58.369Z,13.20
2017-11-07T08:34:26.935Z,18.73
2017-11-07T08:36:54.785Z,12.10
2017-11-07T08:39:22.695Z,5.30
2017-11-07T08:41:50.568Z,16.03
2017-11-07T08:44:18.450Z,17.67
2017-11-07T08:46:46.283Z,11.90
2017-11-07T08:49:14.909Z,9.87
2017-11-07T08:51:42.828Z,3.83
2017-11-07T08:54:11.437Z,6.70
2017-11-07T08:56:39.318Z,10.90
2017-11-07T08:59:07.131Z,6.93
2017-11-07T09:01:39.777Z,15.10
2017-11-07T09:04:07.732Z,7.35
2017-11-07T09:06:35.564Z,5.67
2017-11-07T09:09:04.288Z,13.67
2017-11-07T09:11:32.133Z,6.07
2017-11-07T09:14:00.059Z,5.33
2017-11-07T09:16:27.995Z,9.93
2017-11-07T09:18:55.926Z,18.07
2017-11-07T09:21:24.531Z,5.00
2017-11-07T09:23:52.459Z,3.43
2017-11-07T09:26:21.064Z,5.40
2017-11-07T09:28:49.661Z,8.77
2017-11-07T09:31:17.583Z,5.13
2017-11-07T09:33:45.494Z,2.30
2017-11-07T09:36:13.590Z,8.53
2017-11-07T09:38:41.445Z,2.73
2017-11-07T09:41:09.383Z,11.27
2017-11-07T09:43:37.975Z,3.97
2017-11-07T09:46:05.947Z,2.33
2017-11-07T09:48:33.794Z,6.33
2017-11-07T09:51:02.405Z,4.70
2017-11-07T09:53:30.268Z,2.60
2017-11-07T09:55:58.111Z,5.97
2017-11-07T09:58:26.746Z,2.37
2017-11-07T10:00:54.674Z,3.60
2017-11-07T10:03:22.579Z,7.63
2017-11-07T10:05:50.456Z,4.10
2017-11-07T10:08:18.418Z,1.70
2017-11-07T10:10:46.573Z,8.83
2017-11-07T10:13:14.420Z,2.53
2017-11-07T10:15:42.372Z,4.20
2017-11-07T10:18:11.019Z,4.30
2017-11-07T10:20:38.850Z,7.20
2017-11-07T10:23:06.752Z,10.00
2017-11-07T10:25:34.905Z,5.37
2017-11-07T10:28:02.809Z,2.97
2017-11-07T10:30:30.715Z,4.00
2017-11-07T10:32:58.646Z,6.80
2017-11-07T10:35:26.556Z,8.40
2017-11-07T10:37:54.616Z,4.93
2017-11-07T10:40:22.473Z,6.10
2017-11-07T10:42:51.358Z,3.10
2017-11-07T10:45:19.983Z,7.23
2017-11-07T10:47:48.573Z,3.73
2017-11-07T10:50:16.489Z,2.37
2017-11-07T10:52:45.399Z,2.10
2017-11-07T10:55:13.525Z,2.50
2017-11-07T10:57:42.422Z,1.67
2017-11-07T11:00:10.332Z,5.83
2017-11-07T11:02:38.654Z,5.47
2017-11-07T11:05:06.713Z,8.43
2017-11-07T11:07:35.134Z,2.20
2017-11-07T11:10:03.885Z,10.13
2017-11-07T11:12:32.794Z,1.60
2017-11-07T11:15:00.616Z,2.60
2017-11-07T11:17:28.465Z,10.20
2017-11-07T11:19:56.333Z,5.63
2017-11-07T11:22:24.224Z,2.87
2017-11-07T11:24:52.023Z,3.57
2017-11-07T11:27:19.888Z,7.03
2017-11-07T11:29:47.726Z,3.93
2017-11-07T11:32:15.694Z,1.47
2017-11-07T11:34:43.570Z,3.13
2017-11-07T11:37:11.539Z,3.40
2017-11-07T11:39:39.458Z,14.10
2017-11-07T11:42:08.085Z,8.03
2017-11-07T11:44:36.050Z,4.00
2017-11-07T11:47:04.004Z,4.33
2017-11-07T11:49:32.119Z,3.50
2017-11-07T11:52:00.084Z,6.93
2017-11-07T11:54:27.946Z,2.90
2017-11-07T11:56:55.895Z,4.20
2017-11-07T11:59:24.553Z,3.67
2017-11-07T12:01:52.401Z,2.60
2017-11-07T12:04:21.079Z,14.80
2017-11-07T12:06:49.759Z,7.40
2017-11-07T12:09:18.438Z,3.63
2017-11-07T12:11:46.360Z,4.43
2017-11-07T12:14:15.049Z,4.10
2017-11-07T12:16:42.927Z,2.17
2017-11-07T12:19:10.831Z,3.73
2017-11-07T12:21:39.974Z,1.57
2017-11-07T12:24:08.715Z,1.83
2017-11-07T12:26:37.366Z,7.00
2017-11-07T12:29:05.274Z,1.30
2017-11-07T12:31:33.901Z,6.43
2017-11-07T12:34:01.922Z,3.20
2017-11-07T12:36:30.676Z,1.37
2017-11-07T12:38:58.601Z,1.77
2017-11-07T12:41:26.448Z,4.00
2017-11-07T12:43:55.327Z,2.83
2017-11-07T12:46:23.192Z,3.77
2017-11-07T12:48:51.186Z,2.70
2017-11-07T12:51:31.014Z,5.30
2017-11-07T12:53:59.627Z,1.73
2017-11-07T12:56:27.532Z,4.13
2017-11-07T12:58:55.417Z,2.47
2017-11-07T13:01:23.310Z,4.67
2017-11-07T13:03:51.928Z,8.10
2017-11-07T13:06:19.859Z,3.53
2017-11-07T13:08:48.464Z,1.70
2017-11-07T13:11:16.298Z,4.73
2017-11-07T13:13:44.304Z,2.30
2017-11-07T13:16:12.123Z,6.97
2017-11-07T13:18:39.997Z,13.60
2017-11-07T13:21:07.844Z,6.17
2017-11-07T13:23:35.708Z,3.72
2017-11-07T13:26:03.700Z,8.83
2017-11-07T13:28:32.298Z,7.63
2017-11-07T13:31:00.949Z,2.40
2017-11-07T13:33:28.858Z,3.83
2017-11-07T13:35:57.455Z,4.20
2017-11-07T13:38:25.273Z,2.77
2017-11-07T13:40:53.104Z,5.33
2017-11-07T13:43:21.068Z,7.03
2017-11-07T13:45:48.960Z,1.37
2017-11-07T13:48:16.881Z,2.70
2017-11-07T13:50:44.755Z,1.87
2017-11-07T13:53:12.715Z,1.73
2017-11-07T13:55:40.934Z,2.20
2017-11-07T13:58:08.786Z,3.80
2017-11-07T14:00:37.708Z,3.77
2017-11-07T14:03:05.561Z,7.60
2017-11-07T14:05:33.487Z,7.80
2017-11-07T14:08:01.397Z,2.10
2017-11-07T14:10:29.261Z,2.37
2017-11-07T14:12:57.100Z,3.53
2017-11-07T14:15:25.189Z,4.20
2017-11-07T14:17:53.108Z,1.50
2017-11-07T14:20:21.767Z,4.20
2017-11-07T14:22:50.360Z,1.83
2017-11-07T14:25:18.200Z,6.00
2017-11-07T14:27:46.092Z,2.60
2017-11-07T14:30:14.760Z,3.33
2017-11-07T14:32:42.640Z,1.60
2017-11-07T14:35:10.761Z,3.43
2017-11-07T14:37:38.617Z,3.60
2017-11-07T14:40:06.599Z,3.80
2017-11-07T14:42:34.473Z,9.85
2017-11-07T14:45:02.468Z,4.03
2017-11-07T14:47:30.801Z,2.40
2017-11-07T14:49:58.858Z,2.80
2017-11-07T14:52:27.627Z,1.20
2017-11-07T14:54:56.492Z,6.97
2017-11-07T14:57:24.314Z,5.63
2017-11-07T14:59:52.286Z,5.80
2017-11-07T15:02:21.269Z,4.00
2017-11-07T15:04:49.555Z,5.63
2017-11-07T15:07:17.957Z,5.83
2017-11-07T15:09:45.939Z,7.97
2017-11-07T15:12:13.808Z,6.17
2017-11-07T15:14:41.629Z,7.60
2017-11-07T15:17:09.600Z,3.00
2017-11-07T15:19:37.502Z,3.60
2017-11-07T15:22:05.563Z,8.37
2017-11-07T15:24:33.474Z,2.20
2017-11-07T15:27:02.151Z,3.83
2017-11-07T15:29:30.772Z,3.13
2017-11-07T15:31:58.584Z,4.47
2017-11-07T15:34:26.430Z,2.97
2017-11-07T15:36:54.408Z,1.83
2017-11-07T15:39:22.292Z,3.00
2017-11-07T15:41:50.280Z,5.27
2017-11-07T15:44:18.165Z,1.73
2017-11-07T15:46:46.124Z,9.47
2017-11-07T15:49:14.851Z,1.80
2017-11-07T15:51:43.160Z,5.27
2017-11-07T15:54:11.054Z,11.57
2017-11-07T15:56:39.960Z,3.17
2017-11-07T15:59:07.799Z,6.57
2017-11-07T16:01:36.475Z,3.30
2017-11-07T16:04:04.457Z,2.00
2017-11-07T16:06:33.334Z,3.03
2017-11-07T16:09:01.273Z,6.50
2017-11-07T16:11:29.355Z,3.20
2017-11-07T16:13:58.483Z,3.10
2017-11-07T16:16:27.350Z,2.33
2017-11-07T16:18:56.055Z,3.53
2017-11-07T16:21:25.125Z,3.67
2017-11-07T16:23:53.304Z,7.60
2017-11-07T16:26:22.143Z,7.80
2017-11-07T16:28:50.086Z,5.20
2017-11-07T16:31:19.267Z,3.87
2017-11-07T16:33:48.077Z,4.73
2017-11-07T16:36:16.032Z,3.33
2017-11-07T16:38:44.711Z,8.50
2017-11-07T16:41:12.576Z,3.90
2017-11-07T16:43:40.452Z,3.13
2017-11-07T16:46:09.130Z,4.50
2017-11-07T16:48:37.840Z,1.77
2017-11-07T16:51:06.770Z,3.00
2017-11-07T16:53:34.647Z,2.10
2017-11-07T16:56:02.600Z,2.70
2017-11-07T16:58:30.569Z,3.00
2017-11-07T17:00:58.579Z,3.50
2017-11-07T17:03:27.266Z,9.30
2017-11-07T17:05:55.139Z,6.80
2017-11-07T17:08:23.835Z,2.70
2017-11-07T17:10:52.848Z,3.53
2017-11-07T17:13:20.693Z,4.03
2017-11-07T17:15:49.307Z,2.63
2017-11-07T17:18:17.433Z,4.03
2017-11-07T17:20:45.281Z,2.60
2017-11-07T17:23:13.268Z,4.73
2017-11-07T17:25:41.869Z,9.10
2017-11-07T17:28:09.747Z,8.50
2017-11-07T17:30:37.667Z,8.53
2017-11-07T17:33:06.467Z,3.97
2017-11-07T17:35:36.999Z,3.53
2017-11-07T17:38:04.931Z,4.62
2017-11-07T17:40:32.839Z,5.87
2017-11-07T17:43:01.520Z,2.20
2017-11-07T17:45:29.328Z,3.30
2017-11-07T17:47:57.212Z,7.80
2017-11-07T17:50:25.072Z,9.77
2017-11-07T17:52:52.925Z,10.50
2017-11-07T17:55:20.829Z,7.30
2017-11-07T17:57:48.852Z,8.67
2017-11-07T18:00:23.596Z,7.45
2017-11-07T18:02:51.637Z,2.80
2017-11-07T18:05:20.359Z,10.70
2017-11-07T18:07:48.201Z,14.40
2017-11-07T18:10:16.970Z,5.87
2017-11-07T18:12:45.621Z,7.63
2017-11-07T18:15:13.470Z,2.60
2017-11-07T18:17:41.334Z,7.47
2017-11-07T18:20:09.186Z,4.97
2017-11-07T18:22:37.057Z,9.80
2017-11-07T18:25:04.922Z,4.40
2017-11-07T18:27:32.811Z,10.90
2017-11-07T18:30:01.735Z,6.00
2017-11-07T18:32:30.599Z,2.70
2017-11-07T18:34:58.552Z,7.77
2017-11-07T18:37:26.524Z,7.67
2017-11-07T18:39:54.368Z,9.97
2017-11-07T18:42:22.224Z,10.10
2017-11-07T18:44:50.123Z,7.77
2017-11-07T18:47:17.970Z,9.90
2017-11-07T18:49:46.539Z,12.60
2017-11-07T18:52:14.440Z,8.63
2017-11-07T18:54:42.334Z,8.30
2017-11-07T18:57:10.128Z,7.20
2017-11-07T18:59:38.985Z,6.90
2017-11-07T19:02:07.004Z,5.43
2017-11-07T19:04:34.784Z,4.77
2017-11-07T19:07:02.644Z,5.13
2017-11-07T19:09:30.724Z,10.27
2017-11-07T19:11:58.964Z,14.97
2017-11-07T19:14:26.759Z,6.57
2017-11-07T19:16:54.673Z,6.10
2017-11-07T19:19:22.524Z,5.43
2017-11-07T19:21:50.436Z,6.37
2017-11-07T19:24:19.038Z,7.33
2017-11-07T19:26:46.911Z,28.17
2017-11-07T19:29:14.888Z,6.30
2017-11-07T19:31:42.701Z,17.13
2017-11-07T19:34:11.290Z,10.07
2017-11-07T19:36:39.904Z,8.23
2017-11-07T19:39:07.734Z,5.03
2017-11-07T19:41:35.604Z,8.43
2017-11-07T19:44:04.250Z,7.17
2017-11-07T19:46:32.122Z,8.27
2017-11-07T19:48:59.992Z,5.73
2017-11-07T19:51:27.788Z,5.70
2017-11-07T19:53:56.395Z,5.77
2017-11-07T19:56:24.221Z,7.80
2017-11-07T19:58:52.032Z,2.50
2017-11-07T20:01:19.945Z,5.83
2017-11-07T20:03:47.892Z,5.63
2017-11-07T20:06:15.791Z,5.70
2017-11-07T20:08:44.391Z,6.50
2017-11-07T20:11:13.095Z,4.33
2017-11-07T20:13:40.888Z,3.33
2017-11-07T20:16:08.900Z,6.30
2017-11-07T20:18:37.536Z,5.77
2017-11-07T20:21:05.504Z,16.20
2017-11-07T20:23:33.297Z,81.27
2017-11-07T20:26:01.104Z,97.40
2017-11-07T20:28:29.743Z,130.80
2017-11-07T20:30:57.607Z,86.03
2017-11-07T20:33:26.602Z,51.70
2017-11-07T20:35:55.809Z,17.23
2017-11-07T20:38:23.668Z,16.13
2017-11-07T20:40:51.624Z,21.47
2017-11-07T20:43:20.124Z,12.73
2017-11-07T20:45:48.143Z,8.17
2017-11-07T20:48:15.972Z,8.10
2017-11-07T20:50:43.996Z,7.10
2017-11-07T20:53:13.483Z,3.37
2017-11-07T20:55:41.375Z,5.67
2017-11-07T20:58:09.263Z,18.07
2017-11-07T21:00:37.176Z,9.60
2017-11-07T21:03:05.793Z,7.63
2017-11-07T21:05:33.684Z,4.60
2017-11-07T21:08:02.061Z,6.83
2017-11-07T21:10:29.925Z,7.23
2017-11-07T21:12:58.251Z,4.97
2017-11-07T21:15:26.276Z,5.37
2017-11-07T21:17:54.208Z,5.13
2017-11-07T21:20:24.760Z,11.83
2017-11-07T21:22:52.970Z,2.47
2017-11-07T21:25:21.281Z,2.57
2017-11-07T21:27:50.062Z,4.23
2017-11-07T21:30:19.558Z,2.83
2017-11-07T21:32:48.209Z,7.97
2017-11-07T21:35:17.628Z,7.53
2017-11-07T21:37:46.505Z,3.87
2017-11-07T21:40:14.672Z,5.37
2017-11-07T21:42:46.752Z,6.73
2017-11-07T21:45:15.865Z,6.00
2017-11-07T21:47:45.543Z,7.73
2017-11-07T21:50:14.262Z,5.63
2017-11-07T21:52:42.515Z,13.90
2017-11-07T21:55:11.417Z,5.10
2017-11-07T21:57:40.423Z,7.63
2017-11-07T22:00:08.751Z,5.87
2017-11-07T22:02:37.050Z,5.37
2017-11-07T22:05:04.930Z,5.10
2017-11-07T22:07:33.674Z,8.57
2017-11-07T22:10:04.632Z,10.37
2017-11-07T22:12:32.523Z,2.10
2017-11-07T22:15:01.081Z,10.87
2017-11-07T22:17:45.484Z,5.67
2017-11-07T22:20:16.661Z,5.30
2017-11-07T22:22:47.451Z,4.60
2017-11-07T22:25:22.317Z,3.83
2017-11-07T22:27:50.258Z,2.80
2017-11-07T22:30:18.137Z,4.80
2017-11-07T22:32:47.907Z,8.60
2017-11-07T22:35:16.042Z,6.10
2017-11-07T22:37:44.006Z,8.60
2017-11-07T22:40:12.111Z,5.80
2017-11-07T22:42:39.948Z,17.23
2017-11-07T22:45:07.789Z,6.80
2017-11-07T22:47:35.665Z,28.67
2017-11-07T22:50:03.626Z,13.93
2017-11-07T22:52:31.417Z,5.23
2017-11-07T22:54:59.376Z,4.60
2017-11-07T22:57:27.212Z,3.27
2017-11-07T22:59:54.997Z,3.37
2017-11-07T23:02:22.824Z,5.70
2017-11-07T23:04:51.473Z,2.97
2017-11-07T23:07:19.296Z,7.20
2017-11-07T23:09:47.245Z,3.20
2017-11-07T23:12:15.824Z,2.07
2017-11-07T23:14:46.676Z,6.10
2017-11-07T23:17:14.598Z,2.40
2017-11-07T23:19:42.396Z,3.60
2017-11-07T23:22:12.827Z,5.22
2017-11-07T23:24:41.444Z,3.47
2017-11-07T23:27:09.331Z,3.10
2017-11-07T23:29:37.208Z,4.40
2017-11-07T23:32:05.062Z,4.13
2017-11-07T23:34:32.864Z,7.20
2017-11-07T23:37:01.456Z,4.70
2017-11-07T23:39:30.073Z,4.10
2017-11-07T23:41:57.862Z,3.43
2017-11-07T23:44:25.700Z,4.10
2017-11-07T23:46:53.487Z,1.90
2017-11-07T23:49:21.467Z,2.20
2017-11-07T23:51:49.361Z,3.00
2017-11-07T23:54:18.829Z,2.87
2017-11-07T23:56:46.637Z,5.60
2017-11-07T23:59:24.125Z,3.10
